createdAt,value
2022-10-17T00:01:31.364Z,22.70
2022-10-17T00:03:58.194Z,22.48
2022-10-17T00:06:24.879Z,23.73
2022-10-17T00:08:51.715Z,23.13
2022-10-17T00:11:21.884Z,24.45
2022-10-17T00:13:50.539Z,23.77
2022-10-17T00:16:26.590Z,23.15
2022-10-17T00:18:53.303Z,22.30
2022-10-17T00:21:21.732Z,23.98
2022-10-17T00:23:48.583Z,23.73
2022-10-17T00:26:16.546Z,23.50
2022-10-17T00:28:46.477Z,25.48
2022-10-17T00:31:13.457Z,24.92
2022-10-17T00:33:40.172Z,23.30
2022-10-17T00:36:19.108Z,23.52
2022-10-17T00:38:47.548Z,24.13
2022-10-17T00:41:18.007Z,23.70
2022-10-17T00:43:58.480Z,22.08
2022-10-17T00:46:36.778Z,24.25
2022-10-17T00:49:10.750Z,24.65
2022-10-17T00:51:45.611Z,23.03
2022-10-17T00:56:40.657Z,22.48
2022-10-17T00:59:12.452Z,23.08
2022-10-17T01:01:41.778Z,25.35
2022-10-17T01:04:08.558Z,23.70
2022-10-17T01:06:35.217Z,23.58
2022-10-17T01:09:02.034Z,24.38
2022-10-17T01:11:39.858Z,24.00
2022-10-17T01:14:16.712Z,24.73
2022-10-17T01:16:52.349Z,26.45
2022-10-17T01:19:58.904Z,24.45
2022-10-17T01:23:06.771Z,24.30
2022-10-17T01:25:48.327Z,23.60
2022-10-17T01:28:39.856Z,22.30
2022-10-17T01:31:06.620Z,23.02
2022-10-17T01:34:01.507Z,22.45
2022-10-17T01:36:56.463Z,23.38
2022-10-17T01:40:01.868Z,20.65
2022-10-17T01:42:39.411Z,21.15
2022-10-17T01:45:20.037Z,20.65
2022-10-17T01:47:50.887Z,18.77
2022-10-17T01:50:24.231Z,16.75
2022-10-17T01:52:59.470Z,16.50
2022-10-17T01:55:31.894Z,19.20
2022-10-17T01:58:04.239Z,16.55
2022-10-17T02:00:32.496Z,17.08
2022-10-17T02:03:02.623Z,17.40
2022-10-17T02:05:33.771Z,16.20
2022-10-17T02:08:00.476Z,17.10
2022-10-17T02:10:42.679Z,16.75
2022-10-17T02:13:47.858Z,16.77
2022-10-17T02:16:20.239Z,17.48
2022-10-17T02:18:49.709Z,17.70
2022-10-17T02:21:26.048Z,17.75
2022-10-17T02:23:55.987Z,17.20
2022-10-17T02:26:33.980Z,16.58
2022-10-17T02:29:13.169Z,16.92
2022-10-17T02:31:43.368Z,15.60
2022-10-17T02:34:31.004Z,17.42
2022-10-17T02:37:02.170Z,14.57
2022-10-17T02:39:31.700Z,13.95
2022-10-17T02:42:02.845Z,14.55
2022-10-17T02:44:32.057Z,17.52
2022-10-17T02:47:11.599Z,14.65
2022-10-17T02:49:43.997Z,13.90
2022-10-17T02:52:15.174Z,13.50
2022-10-17T02:55:00.492Z,15.85
2022-10-17T02:57:42.628Z,16.63
2022-10-17T03:00:12.290Z,16.15
2022-10-17T03:02:45.154Z,16.05
2022-10-17T03:05:14.117Z,15.23
2022-10-17T03:07:40.780Z,16.27
2022-10-17T03:10:07.733Z,17.50
2022-10-17T03:12:34.605Z,18.27
2022-10-17T03:15:01.217Z,16.98
2022-10-17T03:17:27.935Z,16.25
2022-10-17T03:19:54.602Z,16.98
2022-10-17T03:22:21.189Z,17.88
2022-10-17T03:24:47.840Z,17.98
2022-10-17T03:27:14.649Z,18.15
2022-10-17T03:29:41.329Z,17.58
2022-10-17T03:32:08.066Z,18.05
2022-10-17T03:34:35.029Z,18.63
2022-10-17T03:37:01.796Z,18.35
2022-10-17T03:39:28.475Z,17.05
2022-10-17T03:41:55.251Z,15.75
2022-10-17T03:44:21.936Z,15.95
2022-10-17T03:46:48.732Z,16.08
2022-10-17T03:49:15.483Z,17.00
2022-10-17T03:51:42.174Z,16.45
2022-10-17T03:54:08.862Z,15.75
2022-10-17T03:56:35.497Z,17.33
2022-10-17T03:59:02.175Z,17.70
2022-10-17T04:01:28.863Z,16.42
2022-10-17T04:03:56.773Z,17.30
2022-10-17T04:06:24.003Z,17.90
2022-10-17T04:08:50.945Z,17.92
2022-10-17T04:11:20.617Z,17.17
2022-10-17T04:13:47.853Z,13.95
2022-10-17T04:16:17.346Z,13.98
2022-10-17T04:18:44.515Z,13.50
2022-10-17T04:21:12.626Z,14.70
2022-10-17T04:23:39.829Z,14.52
2022-10-17T04:26:06.911Z,14.23
2022-10-17T04:28:34.023Z,13.88
2022-10-17T04:31:04.381Z,13.40
2022-10-17T04:33:32.310Z,15.18
2022-10-17T04:36:01.267Z,15.18
2022-10-17T04:38:29.332Z,16.05
2022-10-17T04:41:05.533Z,15.13
2022-10-17T04:43:36.602Z,14.93
2022-10-17T04:46:11.215Z,13.25
2022-10-17T04:48:39.135Z,14.55
2022-10-17T04:51:12.043Z,14.13
2022-10-17T04:53:39.666Z,14.45
2022-10-17T04:56:18.608Z,15.63
2022-10-17T04:58:46.115Z,14.95
2022-10-17T05:01:16.448Z,14.23
2022-10-17T05:03:43.353Z,14.23
2022-10-17T05:06:12.524Z,14.93
2022-10-17T05:08:39.490Z,15.93
2022-10-17T05:11:15.089Z,12.68
2022-10-17T05:13:41.793Z,15.40
2022-10-17T05:16:08.418Z,15.40
2022-10-17T05:18:35.032Z,17.80
2022-10-17T05:21:04.041Z,17.13
2022-10-17T05:23:30.961Z,16.88
2022-10-17T05:25:57.705Z,16.20
2022-10-17T05:28:24.399Z,15.80
2022-10-17T05:30:51.242Z,17.08
2022-10-17T05:33:18.001Z,16.10
2022-10-17T05:35:44.705Z,16.00
2022-10-17T05:38:11.416Z,17.95
2022-10-17T05:40:39.539Z,16.88
2022-10-17T05:43:06.475Z,16.77
2022-10-17T05:45:33.155Z,17.15
2022-10-17T05:47:59.953Z,18.45
2022-10-17T05:50:26.685Z,17.63
2022-10-17T05:52:54.806Z,17.05
2022-10-17T05:55:22.766Z,17.52
2022-10-17T05:57:50.566Z,17.52
2022-10-17T06:00:17.497Z,18.02
2022-10-17T06:02:47.820Z,17.55
2022-10-17T06:05:14.926Z,16.80
2022-10-17T06:07:41.811Z,17.10
2022-10-17T06:10:09.440Z,17.67
2022-10-17T06:12:36.193Z,16.17
2022-10-17T06:15:02.917Z,17.67
2022-10-17T06:17:30.485Z,18.23
2022-10-17T06:19:57.597Z,18.00
2022-10-17T06:22:24.230Z,17.63
2022-10-17T06:24:52.644Z,17.00
2022-10-17T06:27:20.102Z,14.85
2022-10-17T06:29:47.806Z,14.88
2022-10-17T06:32:15.317Z,14.48
2022-10-17T06:34:42.135Z,15.85
2022-10-17T06:37:08.773Z,14.90
2022-10-17T06:39:35.980Z,16.00
2022-10-17T06:42:04.225Z,16.35
2022-10-17T06:44:32.020Z,15.57
2022-10-17T06:46:59.572Z,14.18
2022-10-17T06:49:26.854Z,14.00
2022-10-17T06:51:53.673Z,13.30
2022-10-17T06:54:20.582Z,12.85
2022-10-17T06:56:47.322Z,13.10
2022-10-17T06:59:15.653Z,13.65
2022-10-17T07:01:46.150Z,14.57
2022-10-17T07:04:14.201Z,14.02
2022-10-17T07:06:41.042Z,13.65
2022-10-17T07:09:08.143Z,14.40
2022-10-17T07:11:35.377Z,13.18
2022-10-17T07:14:03.041Z,14.65
2022-10-17T07:16:29.718Z,14.48
2022-10-17T07:18:56.554Z,13.70
2022-10-17T07:21:23.206Z,13.80
2022-10-17T07:23:50.179Z,14.23
2022-10-17T07:26:18.686Z,13.95
2022-10-17T07:28:47.099Z,13.80
2022-10-17T07:31:17.020Z,13.10
2022-10-17T07:36:12.231Z,13.43
2022-10-17T07:38:39.557Z,13.05
2022-10-17T07:41:08.549Z,12.15
2022-10-17T07:43:36.523Z,13.77
2022-10-17T07:46:04.447Z,13.07
2022-10-17T07:48:31.070Z,12.63
2022-10-17T07:50:57.913Z,13.05
2022-10-17T07:53:24.594Z,13.85
2022-10-17T07:55:51.695Z,12.98
2022-10-17T07:58:18.525Z,12.50
2022-10-17T08:00:48.506Z,12.57
2022-10-17T08:03:15.375Z,11.88
2022-10-17T08:05:42.348Z,12.05
2022-10-17T08:08:09.009Z,12.50
2022-10-17T08:10:35.681Z,12.20
2022-10-17T08:13:03.112Z,12.02
2022-10-17T08:15:31.840Z,12.52
2022-10-17T08:17:59.468Z,11.93
2022-10-17T08:20:26.747Z,10.35
2022-10-17T08:22:57.028Z,11.27
2022-10-17T08:25:23.933Z,10.48
2022-10-17T08:27:50.632Z,10.32
2022-10-17T08:30:17.897Z,10.57
2022-10-17T08:32:44.559Z,11.80
2022-10-17T08:35:11.771Z,11.45
2022-10-17T08:37:38.469Z,10.68
2022-10-17T08:40:05.644Z,10.73
2022-10-17T08:42:51.138Z,10.57
2022-10-17T08:45:38.698Z,9.68
2022-10-17T08:48:11.624Z,10.18
2022-10-17T08:51:01.856Z,10.32
2022-10-17T08:53:34.832Z,10.73
2022-10-17T08:56:15.363Z,10.55
2022-10-17T09:01:35.201Z,10.02
2022-10-17T09:04:20.053Z,10.38
2022-10-17T09:07:00.334Z,9.65
2022-10-17T09:09:35.939Z,10.10
2022-10-17T09:12:15.088Z,9.95
2022-10-17T09:15:06.626Z,10.32
2022-10-17T09:17:42.541Z,10.05
2022-10-17T09:20:20.922Z,10.82
2022-10-17T09:23:00.091Z,10.32
2022-10-17T09:25:28.063Z,9.93
2022-10-17T09:28:06.249Z,9.43
2022-10-17T09:30:45.974Z,10.10
2022-10-17T09:33:35.320Z,9.80
2022-10-17T09:36:05.787Z,9.90
2022-10-17T09:38:44.690Z,10.48
2022-10-17T09:41:44.706Z,10.55
2022-10-17T09:44:33.077Z,9.85
2022-10-17T09:47:11.724Z,10.35
2022-10-17T09:49:40.837Z,10.27
2022-10-17T09:52:18.511Z,10.65
2022-10-17T09:54:55.079Z,10.93
2022-10-17T09:57:22.543Z,10.45
2022-10-17T10:00:00.862Z,10.80
2022-10-17T10:02:30.475Z,13.00
2022-10-17T10:05:17.691Z,12.65
2022-10-17T10:08:00.783Z,13.15
2022-10-17T10:10:29.407Z,14.02
2022-10-17T10:13:06.173Z,13.77
2022-10-17T10:15:37.740Z,13.45
2022-10-17T10:21:09.405Z,13.32
2022-10-17T10:23:40.847Z,13.55
2022-10-17T10:26:35.661Z,13.05
2022-10-17T10:29:05.874Z,14.02
2022-10-17T10:31:37.235Z,13.77
2022-10-17T10:34:20.549Z,14.35
2022-10-17T10:36:53.041Z,15.07
2022-10-17T10:39:34.439Z,14.48
2022-10-17T10:42:03.281Z,14.48
2022-10-17T10:44:32.248Z,15.02
2022-10-17T10:47:21.966Z,16.63
2022-10-17T10:49:51.683Z,17.45
2022-10-17T10:52:28.494Z,17.83
2022-10-17T10:55:19.851Z,16.83
2022-10-17T10:57:49.269Z,17.25
2022-10-17T11:00:21.273Z,17.33
2022-10-17T11:03:21.935Z,16.65
2022-10-17T11:05:54.156Z,18.10
2022-10-17T11:08:48.384Z,18.65
2022-10-17T11:11:28.479Z,18.08
2022-10-17T11:14:20.842Z,17.83
2022-10-17T11:17:10.502Z,18.02
2022-10-17T11:19:44.773Z,19.13
2022-10-17T11:22:29.134Z,19.35
2022-10-17T11:25:25.438Z,20.20
2022-10-17T11:27:52.074Z,19.85
2022-10-17T11:30:19.358Z,18.58
2022-10-17T11:33:01.139Z,18.35
2022-10-17T11:35:38.076Z,18.38
2022-10-17T11:38:18.750Z,18.52
2022-10-17T11:40:51.505Z,18.83
2022-10-17T11:43:31.315Z,17.90
2022-10-17T11:46:19.139Z,18.38
2022-10-17T11:48:58.579Z,18.33
2022-10-17T11:54:39.099Z,16.40
2022-10-17T11:57:24.457Z,16.55
2022-10-17T12:00:22.243Z,14.38
2022-10-17T12:03:22.854Z,15.55
2022-10-17T12:05:52.842Z,15.00
2022-10-17T12:08:57.628Z,16.08
2022-10-17T12:11:37.212Z,15.15
2022-10-17T12:14:23.911Z,15.35
2022-10-17T12:16:51.088Z,15.07
2022-10-17T12:19:24.909Z,15.68
2022-10-17T12:21:56.339Z,16.77
2022-10-17T12:24:44.138Z,15.73
2022-10-17T12:27:39.909Z,16.13
2022-10-17T12:30:12.751Z,15.65
2022-10-17T12:33:07.571Z,16.33
2022-10-17T12:35:36.988Z,16.50
2022-10-17T12:38:29.971Z,17.63
2022-10-17T12:40:57.863Z,17.02
2022-10-17T12:43:27.478Z,17.17
2022-10-17T12:46:02.636Z,18.27
2022-10-17T12:48:38.570Z,19.27
2022-10-17T12:51:35.294Z,18.13
2022-10-17T12:54:02.364Z,17.23
2022-10-17T12:56:36.445Z,16.83
2022-10-17T12:59:27.970Z,16.75
2022-10-17T13:02:04.168Z,17.88
2022-10-17T13:04:31.986Z,18.23
2022-10-17T13:07:01.108Z,17.77
2022-10-17T13:09:37.764Z,16.65
2022-10-17T13:12:11.932Z,18.00
2022-10-17T13:14:41.090Z,18.02
2022-10-17T13:17:20.587Z,16.75
2022-10-17T13:19:47.295Z,17.40
2022-10-17T13:22:26.030Z,18.25
2022-10-17T13:25:06.535Z,17.60
2022-10-17T13:27:36.072Z,17.30
2022-10-17T13:30:32.009Z,17.50
2022-10-17T13:32:59.829Z,16.63
2022-10-17T13:35:58.762Z,16.80
2022-10-17T13:38:28.941Z,16.10
2022-10-17T13:41:01.949Z,16.30
2022-10-17T13:43:38.901Z,17.33
2022-10-17T13:46:32.583Z,15.50
2022-10-17T13:48:53.544Z,17.30
2022-10-17T13:51:20.427Z,16.15
2022-10-17T13:53:47.040Z,16.35
2022-10-17T13:56:27.824Z,17.25
2022-10-17T13:59:05.129Z,16.77
2022-10-17T14:01:32.337Z,16.70
2022-10-17T14:04:19.485Z,16.70
2022-10-17T14:06:49.679Z,16.48
2022-10-17T14:09:21.239Z,16.38
2022-10-17T14:12:12.856Z,16.40
2022-10-17T14:15:08.704Z,16.35
2022-10-17T14:17:30.164Z,18.05
2022-10-17T14:20:34.426Z,17.23
2022-10-17T14:23:17.496Z,17.23
2022-10-17T14:25:40.425Z,16.50
2022-10-17T14:28:14.159Z,16.90
2022-10-17T14:30:56.412Z,16.77
2022-10-17T14:33:28.532Z,16.23
2022-10-17T14:35:57.622Z,16.48
2022-10-17T14:38:25.318Z,15.80
2022-10-17T14:41:30.581Z,17.20
2022-10-17T14:44:00.885Z,16.88
2022-10-17T14:46:28.053Z,16.45
2022-10-17T14:49:07.547Z,17.50
2022-10-17T14:51:44.833Z,16.58
2022-10-17T14:54:32.765Z,16.23
2022-10-17T14:56:59.539Z,16.65
2022-10-17T14:59:52.266Z,17.27
2022-10-17T15:02:13.704Z,17.42
2022-10-17T15:04:40.581Z,17.30
2022-10-17T15:07:07.387Z,16.88
2022-10-17T15:09:34.001Z,16.85
2022-10-17T15:12:05.142Z,16.70
2022-10-17T15:14:31.899Z,16.77
2022-10-17T15:16:58.478Z,16.98
2022-10-17T15:19:25.077Z,16.70
2022-10-17T15:21:51.712Z,17.30
2022-10-17T15:24:18.332Z,17.33
2022-10-17T15:26:45.018Z,17.67
2022-10-17T15:29:16.182Z,17.20
2022-10-17T15:31:42.991Z,17.98
2022-10-17T15:34:09.613Z,17.13
2022-10-17T15:36:40.996Z,16.48
2022-10-17T15:39:07.931Z,17.48
2022-10-17T15:41:34.724Z,18.60
2022-10-17T15:44:01.556Z,16.27
2022-10-17T15:46:30.858Z,16.90
2022-10-17T15:49:02.533Z,19.23
2022-10-17T15:51:29.249Z,19.85
2022-10-17T15:53:55.973Z,18.90
2022-10-17T15:56:26.528Z,19.80
2022-10-17T15:58:53.496Z,19.73
2022-10-17T16:01:24.874Z,18.45
2022-10-17T16:03:52.104Z,18.85
2022-10-17T16:06:20.225Z,19.20
2022-10-17T16:08:48.064Z,18.92
2022-10-17T16:11:42.487Z,19.17
2022-10-17T16:14:15.006Z,19.10
2022-10-17T16:16:41.846Z,20.60
2022-10-17T16:19:09.117Z,18.58
2022-10-17T16:21:38.391Z,20.13
2022-10-17T16:24:06.373Z,19.85
2022-10-17T16:26:33.177Z,19.67
2022-10-17T16:29:02.978Z,22.13
2022-10-17T16:31:34.864Z,21.00
2022-10-17T16:34:02.975Z,21.95
2022-10-17T16:36:29.683Z,20.42
2022-10-17T16:38:56.443Z,19.50
2022-10-17T16:41:24.510Z,21.60
2022-10-17T16:43:53.235Z,21.17
2022-10-17T16:46:20.754Z,20.25
2022-10-17T16:48:47.851Z,20.70
2022-10-17T16:51:16.477Z,21.70
2022-10-17T16:53:45.775Z,21.55
2022-10-17T16:56:14.941Z,20.83
2022-10-17T16:58:42.874Z,21.30
2022-10-17T17:01:13.103Z,21.90
2022-10-17T17:03:42.131Z,21.55
2022-10-17T17:06:12.250Z,23.08
2022-10-17T17:08:39.052Z,22.52
2022-10-17T17:11:10.691Z,23.20
2022-10-17T17:13:37.780Z,21.40
2022-10-17T17:16:12.952Z,23.17
2022-10-17T17:18:40.296Z,23.85
2022-10-17T17:21:09.279Z,23.13
2022-10-17T17:23:38.109Z,22.73
2022-10-17T17:26:07.927Z,23.60
2022-10-17T17:28:35.522Z,22.92
2022-10-17T17:31:02.650Z,23.58
2022-10-17T17:33:30.245Z,24.60
2022-10-17T17:36:01.272Z,23.90
2022-10-17T17:38:33.397Z,22.83
2022-10-17T17:41:00.622Z,23.35
2022-10-17T17:43:27.981Z,23.52
2022-10-17T17:45:54.680Z,23.75
2022-10-17T17:48:21.808Z,23.02
2022-10-17T17:50:49.216Z,24.63
2022-10-17T17:53:17.017Z,24.65
2022-10-17T17:55:43.723Z,24.48
2022-10-17T17:58:12.356Z,24.40
2022-10-17T18:00:40.682Z,24.05
2022-10-17T18:03:07.834Z,23.52
2022-10-17T18:05:34.573Z,22.92
2022-10-17T18:08:01.387Z,24.45
2022-10-17T18:10:29.492Z,23.13
2022-10-17T18:12:56.215Z,25.45
2022-10-17T18:15:22.916Z,24.08
2022-10-17T18:17:49.714Z,24.55
2022-10-17T18:20:16.479Z,23.70
2022-10-17T18:22:43.103Z,23.50
2022-10-17T18:25:09.847Z,24.20
2022-10-17T18:27:36.805Z,24.17
2022-10-17T18:30:04.124Z,23.15
2022-10-17T18:32:32.291Z,24.88
2022-10-17T18:34:59.207Z,23.48
2022-10-17T18:37:25.939Z,23.77
2022-10-17T18:39:55.328Z,23.65
2022-10-17T18:42:22.006Z,23.67
2022-10-17T18:44:48.897Z,24.02
2022-10-17T18:47:16.299Z,22.98
2022-10-17T18:49:43.033Z,23.05
2022-10-17T18:52:09.723Z,23.13
2022-10-17T18:54:36.402Z,23.13
2022-10-17T18:57:03.148Z,23.73
2022-10-17T18:59:29.813Z,24.58
2022-10-17T19:01:56.515Z,24.40
2022-10-17T19:04:23.332Z,23.38
2022-10-17T19:06:50.013Z,22.58
2022-10-17T19:09:16.767Z,23.65
2022-10-17T19:11:43.685Z,22.42
2022-10-17T19:14:15.505Z,22.35
2022-10-17T19:16:45.351Z,23.30
2022-10-17T19:19:15.084Z,22.45
2022-10-17T19:21:42.572Z,23.50
2022-10-17T19:24:16.418Z,22.25
2022-10-17T19:26:44.413Z,24.17
2022-10-17T19:29:15.617Z,24.58
2022-10-17T19:31:42.939Z,24.63
2022-10-17T19:34:11.130Z,22.58
2022-10-17T19:36:38.494Z,22.40
2022-10-17T19:39:08.665Z,23.33
2022-10-17T19:41:36.464Z,24.45
2022-10-17T19:44:03.551Z,23.15
2022-10-17T19:46:31.510Z,23.70
2022-10-17T19:48:58.511Z,22.83
2022-10-17T19:51:26.357Z,22.05
2022-10-17T19:53:54.919Z,22.52
2022-10-17T19:56:23.168Z,22.42
2022-10-17T19:58:50.810Z,23.85
2022-10-17T20:01:21.027Z,23.35
2022-10-17T20:03:47.888Z,22.75
2022-10-17T20:06:15.249Z,24.33
2022-10-17T20:08:42.256Z,23.77
2022-10-17T20:11:16.974Z,23.40
2022-10-17T20:13:44.885Z,21.95
2022-10-17T20:16:15.245Z,22.42
2022-10-17T20:18:42.552Z,23.60
2022-10-17T20:21:15.343Z,21.83
2022-10-17T20:23:43.373Z,22.60
2022-10-17T20:26:26.069Z,24.73
2022-10-17T20:29:02.183Z,22.77
2022-10-17T20:31:29.211Z,24.20
2022-10-17T20:33:57.281Z,21.42
2022-10-17T20:36:24.571Z,22.42
2022-10-17T20:38:55.876Z,22.65
2022-10-17T20:41:23.495Z,22.23
2022-10-17T20:43:52.082Z,22.60
2022-10-17T20:46:35.109Z,23.63
2022-10-17T20:49:03.885Z,21.67
2022-10-17T20:51:30.562Z,23.05
2022-10-17T20:56:29.942Z,23.10
2022-10-17T20:59:00.405Z,23.73
2022-10-17T21:01:28.204Z,24.55
2022-10-17T21:03:55.071Z,23.60
2022-10-17T21:06:22.190Z,23.45
2022-10-17T21:08:49.500Z,23.75
2022-10-17T21:11:22.550Z,24.23
2022-10-17T21:13:58.433Z,24.15
2022-10-17T21:16:26.490Z,23.35
2022-10-17T21:18:53.843Z,24.58
2022-10-17T21:21:24.722Z,23.60
2022-10-17T21:23:51.672Z,23.52
2022-10-17T21:26:18.764Z,24.55
2022-10-17T21:28:46.784Z,22.63
2022-10-17T21:31:22.713Z,24.45
2022-10-17T21:33:54.436Z,25.23
2022-10-17T21:36:21.719Z,25.70
2022-10-17T21:38:50.134Z,22.75
2022-10-17T21:41:19.694Z,23.75
2022-10-17T21:43:47.143Z,24.48
2022-10-17T21:46:16.506Z,24.85
2022-10-17T21:48:44.334Z,25.75
2022-10-17T21:51:13.897Z,24.35
2022-10-17T21:53:41.232Z,24.52
2022-10-17T21:56:11.107Z,25.20
2022-10-17T21:58:38.024Z,24.73
2022-10-17T22:01:10.217Z,24.70
2022-10-17T22:03:42.659Z,25.83
2022-10-17T22:09:00.912Z,25.10
2022-10-17T22:11:31.307Z,24.50
2022-10-17T22:14:02.025Z,25.23
2022-10-17T22:16:28.954Z,26.73
2022-10-17T22:19:06.178Z,25.75
2022-10-17T22:21:35.539Z,26.05
2022-10-17T22:24:06.121Z,25.65
2022-10-17T22:26:35.015Z,27.58
2022-10-17T22:29:02.165Z,25.73
2022-10-17T22:31:28.886Z,25.75
2022-10-17T22:33:55.860Z,26.40
2022-10-17T22:36:22.832Z,25.73
2022-10-17T22:38:49.585Z,24.98
2022-10-17T22:41:16.342Z,26.05
2022-10-17T22:43:43.052Z,26.33
2022-10-17T22:46:10.501Z,25.90
2022-10-17T22:48:37.120Z,25.38
2022-10-17T22:51:03.792Z,26.60
2022-10-17T22:53:30.498Z,28.33
2022-10-17T22:56:01.873Z,24.83
2022-10-17T22:58:30.545Z,27.85
2022-10-17T23:00:57.645Z,28.67
2022-10-17T23:03:26.469Z,26.42
2022-10-17T23:05:53.159Z,28.83
2022-10-17T23:08:19.786Z,26.85
2022-10-17T23:10:47.519Z,27.17
2022-10-17T23:13:16.786Z,27.73
2022-10-17T23:15:43.632Z,25.83
2022-10-17T23:18:10.418Z,25.60
2022-10-17T23:20:37.806Z,26.52
2022-10-17T23:23:04.633Z,26.33
2022-10-17T23:25:33.664Z,26.50
2022-10-17T23:28:00.744Z,27.10
2022-10-17T23:30:27.650Z,27.02
2022-10-17T23:32:54.272Z,27.23
2022-10-17T23:35:20.890Z,27.33
2022-10-17T23:37:47.545Z,27.92
2022-10-17T23:40:14.385Z,27.10
2022-10-17T23:42:41.097Z,27.92
2022-10-17T23:45:08.483Z,27.48
2022-10-17T23:47:35.107Z,26.98
2022-10-17T23:50:01.873Z,27.17
2022-10-17T23:52:28.479Z,28.55
2022-10-17T23:54:55.089Z,27.95
2022-10-17T23:57:21.797Z,25.35
2022-10-17T23:59:48.413Z,27.17
